Time;durP1;ratioP1;P1;durP2;ratioP2;P2;SDS_P1;SDS_P2;PMS_P1;PMS_P2;Temp;Humidity;BMP_temperature;BMP_pressure;BME280_temperature;BME280_humidity;BME280_pressure;Samples;Min_cycle;Max_cycle;Signal;HPM_P1;HPM_P2
2021/03/04 00:02:01;;;;;;;96.27;39.37;;;3.10;99.90;;;;;;4958874;28;20213;-89
2021/03/04 00:04:26;;;;;;;93.83;39.90;;;3.20;99.90;;;;;;4975747;28;20186;-90
2021/03/04 00:06:52;;;;;;;85.10;38.43;;;3.30;99.90;;;;;;4958550;28;20200;-87
2021/03/04 00:09:18;;;;;;;77.83;35.73;;;3.40;99.90;;;;;;4974886;28;20186;-90
2021/03/04 00:11:44;;;;;;;88.53;36.43;;;4.30;99.90;;;;;;4976307;28;20195;-89
2021/03/04 00:14:09;;;;;;;83.17;36.97;;;3.60;99.90;;;;;;4974861;28;20222;-88
2021/03/04 00:16:35;;;;;;;79.13;35.20;;;3.70;99.90;;;;;;4975075;28;20651;-89
2021/03/04 00:19:01;;;;;;;85.37;36.80;;;3.70;99.90;;;;;;4974612;28;20183;-89
2021/03/04 00:21:26;;;;;;;75.63;35.20;;;3.70;99.90;;;;;;4958705;28;20188;-91
2021/03/04 00:23:52;;;;;;;72.30;34.03;;;3.70;99.90;;;;;;4958842;28;20590;-90
2021/03/04 00:26:17;;;;;;;71.00;31.93;;;3.70;99.90;;;;;;4975472;28;20185;-89
2021/03/04 00:28:43;;;;;;;79.37;35.43;;;3.70;99.90;;;;;;4974932;28;20210;-90
2021/03/04 00:31:09;;;;;;;72.63;32.37;;;3.90;99.90;;;;;;4975917;28;20185;-89
2021/03/04 00:33:34;;;;;;;76.03;35.30;;;3.90;99.90;;;;;;4956867;28;20229;-89
2021/03/04 00:36:00;;;;;;;79.03;34.37;;;3.90;99.90;;;;;;4973992;28;20246;-89
2021/03/04 00:38:25;;;;;;;77.50;33.63;;;3.90;99.90;;;;;;4975979;28;20204;-89
2021/03/04 00:40:51;;;;;;;75.03;33.37;;;3.90;99.90;;;;;;4975359;28;20185;-89
2021/03/04 00:43:17;;;;;;;79.47;31.80;;;4.00;99.90;;;;;;4975113;28;20229;-89
2021/03/04 00:45:42;;;;;;;80.03;34.17;;;4.00;99.90;;;;;;4958023;28;20182;-90
2021/03/04 00:48:10;;;;;;;72.73;33.63;;;3.90;99.90;;;;;;4958124;28;20186;-90
2021/03/04 00:50:38;;;;;;;76.30;34.27;;;3.90;99.90;;;;;;4975762;28;20183;-89
2021/03/04 00:53:04;;;;;;;76.27;32.13;;;3.90;99.90;;;;;;4957666;28;20580;-88
2021/03/04 00:55:31;;;;;;;72.00;32.90;;;3.90;99.90;;;;;;4975357;28;20189;-89
2021/03/04 00:57:57;;;;;;;79.77;35.40;;;3.90;99.90;;;;;;4958066;28;20185;-89
2021/03/04 01:00:23;;;;;;;77.50;35.17;;;3.90;99.90;;;;;;4957672;28;20252;-88
2021/03/04 01:02:48;;;;;;;70.47;30.00;;;3.90;99.90;;;;;;4974993;28;20653;-88
2021/03/04 01:05:14;;;;;;;68.20;30.67;;;4.00;99.90;;;;;;4957595;28;20624;-89
2021/03/04 01:07:40;;;;;;;67.87;31.07;;;4.00;99.90;;;;;;4941948;28;20655;-89
2021/03/04 01:10:08;;;;;;;78.00;32.77;;;4.00;99.90;;;;;;4957468;28;20182;-88
2021/03/04 01:12:34;;;;;;;72.33;33.10;;;4.00;99.90;;;;;;4957883;28;20208;-88
2021/03/04 01:15:00;;;;;;;71.90;32.40;;;4.00;99.90;;;;;;4974971;28;20185;-88
2021/03/04 01:17:26;;;;;;;73.73;31.93;;;4.00;99.90;;;;;;4941181;28;20212;-89
2021/03/04 01:19:51;;;;;;;73.30;32.87;;;4.00;99.90;;;;;;4957635;28;20548;-90
2021/03/04 01:22:17;;;;;;;73.40;32.97;;;4.00;99.90;;;;;;4957399;28;20225;-89
2021/03/04 01:24:43;;;;;;;78.07;32.97;;;3.90;99.90;;;;;;4941793;28;20220;-89
2021/03/04 01:27:08;;;;;;;72.10;32.30;;;3.90;99.90;;;;;;4957437;28;20191;-89
2021/03/04 01:29:34;;;;;;;78.53;32.63;;;4.40;99.90;;;;;;4958016;28;20189;-88
2021/03/04 01:32:00;;;;;;;75.50;34.90;;;3.90;99.90;;;;;;4975188;28;20187;-89
2021/03/04 01:34:25;;;;;;;72.50;34.23;;;4.00;99.90;;;;;;4957311;28;20697;-88
2021/03/04 01:36:51;;;;;;;75.47;33.27;;;4.00;99.90;;;;;;4974433;28;20180;-89
2021/03/04 01:39:17;;;;;;;67.37;32.00;;;3.80;99.90;;;;;;4941247;28;20186;-89
2021/03/04 01:41:42;;;;;;;76.70;34.47;;;3.90;99.90;;;;;;4974721;28;20240;-90
2021/03/04 01:44:08;;;;;;;74.97;32.93;;;3.80;99.90;;;;;;4957051;28;20192;-90
2021/03/04 01:46:34;;;;;;;84.50;36.23;;;3.80;99.90;;;;;;4941570;28;20663;-90
2021/03/04 01:48:59;;;;;;;78.37;34.43;;;3.70;99.90;;;;;;4957445;28;20182;-90
2021/03/04 01:51:26;;;;;;;79.77;33.77;;;3.70;99.90;;;;;;4957270;28;20632;-89
2021/03/04 01:53:51;;;;;;;76.70;34.03;;;3.70;99.90;;;;;;4957297;28;20664;-89
2021/03/04 01:56:17;;;;;;;75.27;34.07;;;3.60;99.90;;;;;;4941226;28;20189;-90
2021/03/04 01:58:43;;;;;;;77.53;34.20;;;3.60;99.90;;;;;;4974177;28;20639;-90
2021/03/04 02:01:09;;;;;;;82.53;35.03;;;3.60;99.90;;;;;;4973928;28;20191;-87
2021/03/04 02:03:34;;;;;;;74.83;34.27;;;3.80;99.90;;;;;;4941088;28;20204;-90
2021/03/04 02:06:01;;;;;;;85.10;35.47;;;3.50;99.90;;;;;;4941214;28;20190;-89
2021/03/04 02:08:52;;;;;;;80.47;35.30;;;3.50;99.90;;;;;;4956909;28;20208;-89
2021/03/04 02:11:29;;;;;;;77.90;34.43;;;3.50;99.90;;;;;;4952060;28;20341;-89
2021/03/04 02:14:04;;;;;;;77.50;33.53;;;3.50;99.90;;;;;;4957300;28;20206;-88
2021/03/04 02:16:34;;;;;;;72.27;32.53;;;3.50;99.90;;;;;;4956815;28;20240;-89
2021/03/04 02:19:04;;;;;;;77.73;34.03;;;4.30;99.90;;;;;;4956858;28;20262;-88
2021/03/04 02:21:46;;;;;;;81.03;35.87;;;3.50;99.90;;;;;;4973926;28;20408;-88
2021/03/04 02:24:29;;;;;;;66.40;31.30;;;3.70;99.90;;;;;;4956338;28;20187;-87
2021/03/04 02:27:08;;;;;;;76.77;35.60;;;3.40;99.90;;;;;;4974406;28;20193;-89
2021/03/04 02:30:00;;;;;;;80.10;34.20;;;3.40;99.90;;;;;;4977255;28;20287;-90
2021/03/04 02:32:28;;;;;;;75.73;35.03;;;3.40;99.90;;;;;;4960477;28;20691;-89
2021/03/04 02:35:12;;;;;;;83.20;35.37;;;3.40;99.90;;;;;;4960786;28;20191;-89
2021/03/04 02:37:42;;;;;;;78.63;33.60;;;3.40;99.90;;;;;;4960539;28;20253;-89
2021/03/04 02:40:10;;;;;;;84.13;35.97;;;3.80;99.90;;;;;;4978217;28;20183;-89
2021/03/04 02:42:39;;;;;;;77.37;32.90;;;3.30;99.90;;;;;;4970932;28;20249;-89
2021/03/04 02:45:07;;;;;;;75.33;37.23;;;3.30;99.90;;;;;;4976822;28;20257;-89
2021/03/04 02:47:34;;;;;;;78.30;33.33;;;3.30;99.90;;;;;;4960215;28;20634;-88
2021/03/04 02:50:01;;;;;;;80.37;36.70;;;3.40;99.90;;;;;;4960749;28;20191;-89
2021/03/04 02:52:28;;;;;;;76.90;32.10;;;3.20;99.90;;;;;;4977380;28;20225;-89
2021/03/04 02:54:54;;;;;;;73.57;34.50;;;3.10;99.90;;;;;;4976279;28;20206;-88
2021/03/04 02:57:21;;;;;;;80.57;33.37;;;3.30;99.90;;;;;;4975969;28;20266;-89
2021/03/04 02:59:49;;;;;;;79.23;35.30;;;3.10;99.90;;;;;;4977672;28;20181;-88
2021/03/04 03:02:16;;;;;;;78.97;36.70;;;3.10;99.90;;;;;;4977550;28;20281;-88
2021/03/04 03:04:43;;;;;;;78.23;35.07;;;3.20;99.90;;;;;;4976036;28;20185;-89
2021/03/04 03:07:11;;;;;;;85.20;36.93;;;3.10;99.90;;;;;;4977538;28;20179;-88
2021/03/04 03:09:41;;;;;;;82.53;37.03;;;3.10;99.90;;;;;;4977212;28;20175;-88
2021/03/04 03:12:09;;;;;;;76.67;34.63;;;3.90;99.90;;;;;;4977135;28;20175;-88
2021/03/04 03:14:34;;;;;;;85.90;36.23;;;3.10;99.90;;;;;;4975660;28;20569;-88
2021/03/04 03:17:00;;;;;;;75.63;34.53;;;3.10;99.90;;;;;;4960170;28;20313;-88
2021/03/04 03:19:26;;;;;;;80.97;35.03;;;3.10;99.90;;;;;;4975563;28;20176;-88
2021/03/04 03:21:52;;;;;;;85.13;33.67;;;3.60;99.90;;;;;;4977225;28;20659;-88
2021/03/04 03:24:18;;;;;;;78.43;35.03;;;4.40;99.90;;;;;;4959516;28;20194;-88
2021/03/04 03:26:45;;;;;;;71.23;33.73;;;3.10;99.90;;;;;;4976413;28;20176;-88
2021/03/04 03:29:11;;;;;;;82.77;35.07;;;4.20;99.90;;;;;;4977185;28;20182;-88
2021/03/04 03:31:39;;;;;;;73.90;32.83;;;3.00;99.90;;;;;;4975601;28;20230;-89
2021/03/04 03:34:06;;;;;;;71.67;31.10;;;3.30;99.90;;;;;;4976531;28;20250;-87
2021/03/04 03:36:34;;;;;;;83.67;34.87;;;3.00;99.90;;;;;;4976306;28;20229;-88
2021/03/04 03:39:02;;;;;;;75.40;32.60;;;3.00;99.90;;;;;;4975594;28;20178;-87
2021/03/04 03:41:29;;;;;;;77.70;32.13;;;3.00;99.90;;;;;;4976117;28;20594;-89
2021/03/04 03:43:55;;;;;;;80.67;33.87;;;3.00;99.90;;;;;;4976785;28;20202;-89
2021/03/04 03:46:22;;;;;;;82.50;34.77;;;3.40;99.90;;;;;;4944480;28;20253;-86
2021/03/04 03:48:49;;;;;;;76.57;31.97;;;3.00;99.90;;;;;;4962803;28;20226;-86
2021/03/04 03:51:16;;;;;;;78.80;34.30;;;3.30;99.90;;;;;;4979945;28;20229;-86
2021/03/04 03:53:43;;;;;;;76.27;33.63;;;3.00;99.90;;;;;;4961126;28;20233;-86
2021/03/04 03:56:10;;;;;;;74.70;33.77;;;3.00;99.90;;;;;;4945867;28;20183;-88
2021/03/04 03:58:38;;;;;;;76.10;34.00;;;2.90;99.90;;;;;;4975909;28;20651;-89
2021/03/04 04:01:04;;;;;;;70.00;31.43;;;2.90;99.90;;;;;;4977273;28;20270;-86
2021/03/04 04:03:30;;;;;;;75.70;32.07;;;2.90;99.90;;;;;;4971219;28;20186;-87
2021/03/04 04:05:56;;;;;;;75.50;32.70;;;3.80;99.90;;;;;;4976734;28;20190;-87
2021/03/04 04:08:24;;;;;;;71.50;32.30;;;2.90;99.90;;;;;;4976310;28;20265;-86
2021/03/04 04:10:50;;;;;;;84.10;33.67;;;2.90;99.90;;;;;;4963335;28;20253;-91
2021/03/04 04:13:16;;;;;;;114.20;53.97;;;2.90;99.90;;;;;;4976900;28;20290;-91
2021/03/04 04:15:42;;;;;;;183.17;91.27;;;3.10;99.90;;;;;;4976073;28;20633;-91
2021/03/04 04:18:09;;;;;;;87.90;41.67;;;2.80;99.90;;;;;;4943270;28;20180;-93
2021/03/04 04:20:36;;;;;;;83.23;40.53;;;2.80;99.90;;;;;;4958958;28;20190;-93
2021/03/04 04:23:02;;;;;;;60.37;28.63;;;3.20;99.90;;;;;;4976535;28;20182;-91
2021/03/04 04:25:28;;;;;;;75.73;32.87;;;2.90;99.90;;;;;;4976136;28;20178;-91
2021/03/04 04:27:55;;;;;;;74.17;31.10;;;2.90;99.90;;;;;;4976131;28;20253;-88
2021/03/04 04:30:23;;;;;;;83.90;39.20;;;3.10;99.90;;;;;;4976137;28;20179;-90
2021/03/04 04:32:49;;;;;;;74.73;35.10;;;3.00;99.90;;;;;;4958259;28;20210;-90
2021/03/04 04:35:16;;;;;;;65.33;25.10;;;3.60;99.90;;;;;;4958820;28;20194;-90
2021/03/04 04:37:42;;;;;;;97.90;45.57;;;4.10;99.90;;;;;;4958252;28;20183;-89
2021/03/04 04:40:09;;;;;;;81.67;32.60;;;3.90;99.90;;;;;;4976067;28;20186;-90
2021/03/04 04:42:36;;;;;;;64.80;28.97;;;3.10;99.90;;;;;;4968613;28;20746;-90
2021/03/04 04:45:03;;;;;;;69.47;30.70;;;3.10;99.90;;;;;;4974484;28;20183;-91
2021/03/04 04:47:29;;;;;;;69.57;30.77;;;3.10;99.90;;;;;;4974438;28;20254;-90
2021/03/04 04:49:54;;;;;;;67.87;31.10;;;3.10;99.90;;;;;;4974018;28;20210;-89
2021/03/04 04:52:20;;;;;;;72.10;31.70;;;3.20;99.90;;;;;;4973447;28;20228;-91
2021/03/04 04:54:46;;;;;;;58.97;24.63;;;3.20;99.90;;;;;;4973665;28;20195;-89
2021/03/04 04:57:12;;;;;;;67.17;29.30;;;3.60;99.90;;;;;;4973296;28;20175;-90
2021/03/04 04:59:38;;;;;;;67.67;29.17;;;3.30;99.90;;;;;;4956807;28;20203;-89
2021/03/04 05:02:04;;;;;;;61.00;26.10;;;3.30;99.90;;;;;;4973178;28;20189;-88
2021/03/04 05:04:29;;;;;;;64.60;29.90;;;3.30;99.90;;;;;;4973654;28;20246;-88
2021/03/04 05:06:55;;;;;;;90.77;39.23;;;3.30;99.90;;;;;;4991541;28;20201;-90
2021/03/04 05:09:21;;;;;;;69.37;31.97;;;3.30;99.90;;;;;;4985236;28;20244;-88
2021/03/04 05:11:46;;;;;;;66.23;31.30;;;3.30;99.90;;;;;;4990082;28;20190;-88
2021/03/04 05:14:12;;;;;;;74.53;31.80;;;3.30;99.90;;;;;;4991111;28;20224;-87
2021/03/04 05:16:38;;;;;;;64.23;29.67;;;3.50;99.90;;;;;;4982392;28;20191;-88
2021/03/04 05:19:03;;;;;;;68.30;27.87;;;3.30;99.90;;;;;;4974543;28;20194;-87
2021/03/04 05:21:29;;;;;;;64.20;27.23;;;3.30;99.90;;;;;;4973608;28;20199;-88
2021/03/04 05:23:54;;;;;;;63.77;28.20;;;4.10;99.90;;;;;;4973667;28;20647;-88
2021/03/04 05:26:20;;;;;;;54.27;23.97;;;3.40;99.90;;;;;;4973956;28;20226;-88
2021/03/04 05:28:46;;;;;;;61.70;27.77;;;3.40;99.90;;;;;;4972715;28;20754;-88
2021/03/04 05:31:11;;;;;;;62.53;27.27;;;3.50;99.90;;;;;;4981020;28;20190;-87
2021/03/04 05:33:37;;;;;;;67.37;29.50;;;3.60;99.90;;;;;;4957167;28;20222;-86
2021/03/04 05:36:03;;;;;;;65.10;29.00;;;3.50;99.90;;;;;;4974019;28;20198;-86
2021/03/04 05:38:29;;;;;;;65.17;29.67;;;3.50;99.90;;;;;;4972984;28;20189;-86
2021/03/04 05:40:54;;;;;;;61.73;29.27;;;3.80;99.90;;;;;;4978688;28;20219;-87
2021/03/04 05:43:21;;;;;;;62.47;29.37;;;3.60;99.90;;;;;;4974111;28;20192;-88
2021/03/04 05:45:49;;;;;;;70.60;30.50;;;3.60;99.90;;;;;;4957391;28;20190;-86
2021/03/04 05:48:19;;;;;;;61.53;27.63;;;3.60;99.90;;;;;;4972373;28;20211;-87
2021/03/04 05:50:49;;;;;;;65.17;29.53;;;3.60;99.90;;;;;;4989190;28;20659;-86
2021/03/04 05:53:17;;;;;;;69.97;29.23;;;3.80;99.90;;;;;;4990029;28;20287;-87
2021/03/04 05:55:47;;;;;;;68.27;29.77;;;3.70;99.90;;;;;;4989479;28;20192;-86
2021/03/04 05:58:13;;;;;;;56.07;23.07;;;4.30;99.90;;;;;;4972087;28;20307;-86
2021/03/04 06:00:41;;;;;;;64.50;28.70;;;4.30;99.90;;;;;;4971976;28;20186;-87
2021/03/04 06:03:07;;;;;;;63.50;29.57;;;3.70;99.90;;;;;;4971316;28;20587;-88
2021/03/04 06:05:33;;;;;;;68.07;30.83;;;3.70;99.90;;;;;;4991484;28;20738;-88
2021/03/04 06:08:04;;;;;;;65.60;29.30;;;3.70;99.90;;;;;;4990979;28;20650;-88
2021/03/04 06:10:31;;;;;;;67.73;30.83;;;3.70;99.90;;;;;;4983079;28;20235;-88
2021/03/04 06:12:57;;;;;;;62.27;26.37;;;3.70;99.90;;;;;;4989895;28;20216;-89
2021/03/04 06:15:24;;;;;;;64.83;28.00;;;3.70;99.90;;;;;;4973288;28;20199;-88
2021/03/04 06:17:58;;;;;;;63.73;28.10;;;3.70;99.90;;;;;;4954570;28;20186;-89
2021/03/04 06:20:43;;;;;;;65.07;30.17;;;3.80;99.90;;;;;;4985482;28;20202;-90
2021/03/04 06:23:09;;;;;;;64.13;29.80;;;3.70;99.90;;;;;;4958155;28;20197;-88
2021/03/04 06:25:36;;;;;;;69.37;29.30;;;3.80;99.90;;;;;;4945396;28;20228;-87
2021/03/04 06:28:03;;;;;;;56.27;25.60;;;3.80;99.90;;;;;;4958697;28;20210;-89
2021/03/04 06:30:37;;;;;;;68.77;29.07;;;3.80;99.90;;;;;;4974354;28;20188;-89
2021/03/04 06:33:10;;;;;;;57.03;25.10;;;3.80;99.90;;;;;;4976592;28;20221;-88
2021/03/04 06:35:38;;;;;;;70.30;29.97;;;3.80;99.90;;;;;;4956173;28;20187;-88
2021/03/04 06:38:21;;;;;;;66.00;29.83;;;4.00;99.90;;;;;;4955514;28;20182;-87
2021/03/04 06:40:50;;;;;;;60.07;28.97;;;3.90;99.90;;;;;;4987278;28;20190;-89
2021/03/04 06:43:30;;;;;;;76.40;31.07;;;3.90;99.90;;;;;;4956271;28;20202;-89
2021/03/04 06:46:06;;;;;;;67.60;29.37;;;4.10;99.90;;;;;;4989958;28;20258;-89
2021/03/04 06:48:33;;;;;;;66.17;29.37;;;4.10;99.90;;;;;;4973127;28;20195;-92
2021/03/04 06:51:03;;;;;;;64.40;27.97;;;4.60;99.90;;;;;;4973473;28;20264;-91
2021/03/04 06:53:30;;;;;;;65.97;28.17;;;4.20;99.90;;;;;;4956690;28;20746;-90
2021/03/04 06:56:04;;;;;;;66.23;27.90;;;4.30;99.90;;;;;;4957104;28;20187;-87
2021/03/04 06:58:32;;;;;;;62.13;29.30;;;4.40;99.90;;;;;;4972429;28;20196;-88
2021/03/04 07:01:11;;;;;;;64.03;30.83;;;4.40;99.90;;;;;;4972400;28;20189;-89
2021/03/04 07:03:36;;;;;;;66.13;30.57;;;4.40;99.90;;;;;;4974208;28;20207;-89
2021/03/04 07:06:04;;;;;;;64.37;29.77;;;4.60;99.90;;;;;;4989292;28;20252;-88
2021/03/04 07:08:34;;;;;;;61.20;27.57;;;4.50;99.90;;;;;;4956187;28;20194;-89
2021/03/04 07:11:02;;;;;;;72.63;30.70;;;4.50;99.90;;;;;;4972404;28;20254;-89
2021/03/04 07:13:30;;;;;;;56.43;27.53;;;4.60;99.90;;;;;;4990814;28;20317;-87
2021/03/04 07:15:57;;;;;;;73.60;29.30;;;4.80;99.90;;;;;;4976280;28;20264;-89
2021/03/04 07:18:23;;;;;;;72.07;30.33;;;4.80;99.90;;;;;;4960484;28;20190;-89
2021/03/04 07:20:50;;;;;;;66.03;30.17;;;5.00;99.90;;;;;;4961267;28;20642;-87
2021/03/04 07:23:17;;;;;;;76.13;30.03;;;4.90;99.90;;;;;;4994742;28;20520;-88
2021/03/04 07:25:43;;;;;;;66.63;28.07;;;5.00;99.90;;;;;;4961058;28;20434;-89
2021/03/04 07:28:10;;;;;;;68.13;30.50;;;5.10;99.90;;;;;;4976802;28;20224;-88
2021/03/04 07:30:37;;;;;;;58.40;24.90;;;5.20;99.90;;;;;;4986196;28;20182;-87
2021/03/04 07:33:03;;;;;;;72.43;30.80;;;5.20;99.90;;;;;;4942843;28;20240;-86
2021/03/04 07:35:29;;;;;;;69.30;29.43;;;5.30;99.90;;;;;;4978398;28;20564;-87
2021/03/04 07:37:55;;;;;;;67.53;27.23;;;5.30;99.90;;;;;;4976636;28;20698;-87
2021/03/04 07:40:21;;;;;;;67.50;28.23;;;5.40;99.90;;;;;;4942989;28;20264;-87
2021/03/04 07:42:46;;;;;;;62.07;26.83;;;5.40;99.90;;;;;;4981201;28;20268;-85
2021/03/04 07:45:14;;;;;;;57.67;26.23;;;5.60;99.90;;;;;;4964109;28;20218;-86
2021/03/04 07:47:40;;;;;;;91.10;28.20;;;5.60;99.90;;;;;;4985768;28;20182;-88
2021/03/04 07:50:25;;;;;;;55.33;21.90;;;5.70;99.90;;;;;;4967185;28;20264;-86
2021/03/04 07:53:03;;;;;;;70.87;25.77;;;5.80;99.90;;;;;;4968410;28;20238;-84
2021/03/04 07:55:38;;;;;;;52.53;23.47;;;5.90;99.90;;;;;;4966806;28;20197;-86
2021/03/04 07:58:13;;;;;;;44.23;15.17;;;6.00;99.90;;;;;;4968183;28;20174;-85
2021/03/04 08:00:39;;;;;;;51.63;24.00;;;6.10;99.90;;;;;;4984877;28;20177;-86
2021/03/04 08:03:04;;;;;;;44.50;19.67;;;6.20;99.90;;;;;;4977522;28;20554;-86
2021/03/04 08:05:36;;;;;;;46.47;20.30;;;6.20;99.90;;;;;;4944071;28;20183;-85
2021/03/04 08:08:12;;;;;;;54.13;24.03;;;6.30;99.90;;;;;;4971841;28;20196;-87
2021/03/04 08:10:49;;;;;;;66.60;24.00;;;6.30;99.90;;;;;;4978009;28;20645;-86
2021/03/04 08:13:15;;;;;;;50.53;24.97;;;6.40;99.90;;;;;;4977462;28;20566;-86
2021/03/04 08:15:43;;;;;;;43.53;18.00;;;6.50;99.90;;;;;;4978291;28;20269;-86
2021/03/04 08:18:20;;;;;;;55.47;24.20;;;6.60;99.90;;;;;;4978343;28;20182;-86
2021/03/04 08:20:47;;;;;;;41.47;19.13;;;6.70;99.90;;;;;;4995415;28;20208;-87
2021/03/04 08:23:15;;;;;;;53.23;22.90;;;6.80;99.90;;;;;;4977448;28;20590;-87
2021/03/04 08:25:42;;;;;;;55.33;22.40;;;6.80;99.90;;;;;;4993954;28;20174;-86
2021/03/04 08:28:08;;;;;;;49.43;23.03;;;6.90;99.90;;;;;;4976485;28;20178;-86
2021/03/04 08:30:41;;;;;;;40.77;19.63;;;6.90;99.90;;;;;;4957816;28;20681;-86
2021/03/04 08:33:09;;;;;;;47.00;19.83;;;6.90;99.90;;;;;;4975385;28;20218;-89
2021/03/04 08:35:37;;;;;;;48.53;21.57;;;7.00;99.90;;;;;;4975133;28;20584;-88
2021/03/04 08:38:05;;;;;;;45.90;21.33;;;7.00;99.90;;;;;;4958289;28;20182;-87
2021/03/04 08:40:41;;;;;;;38.30;19.20;;;7.00;99.90;;;;;;4993899;28;20189;-87
2021/03/04 08:43:14;;;;;;;36.93;16.37;;;6.90;99.90;;;;;;4991944;28;20241;-87
2021/03/04 08:45:40;;;;;;;30.70;15.57;;;6.90;99.90;;;;;;4993302;28;20178;-88
2021/03/04 08:48:08;;;;;;;50.27;23.67;;;7.00;99.90;;;;;;4993651;28;20282;-87
2021/03/04 08:50:39;;;;;;;48.03;21.73;;;7.00;99.90;;;;;;4985147;28;20177;-85
2021/03/04 08:53:12;;;;;;;50.20;23.63;;;7.00;99.90;;;;;;4984472;28;20293;-86
2021/03/04 08:55:47;;;;;;;49.33;22.67;;;7.10;99.90;;;;;;4985456;28;20173;-86
2021/03/04 08:58:14;;;;;;;43.43;18.60;;;7.10;99.90;;;;;;4982247;28;20198;-85
2021/03/04 09:00:39;;;;;;;55.90;23.50;;;7.20;99.90;;;;;;4989637;28;20190;-87
2021/03/04 09:03:10;;;;;;;42.93;20.90;;;7.20;99.90;;;;;;4976694;28;20190;-86
2021/03/04 09:05:36;;;;;;;49.77;22.90;;;7.20;99.90;;;;;;4992010;28;20170;-88
2021/03/04 09:08:10;;;;;;;55.47;24.23;;;7.20;99.90;;;;;;4994339;28;20570;-86
2021/03/04 09:10:44;;;;;;;55.73;23.70;;;7.30;99.90;;;;;;4994235;28;20259;-88
2021/03/04 09:13:10;;;;;;;55.50;25.30;;;7.50;99.90;;;;;;4991569;28;20213;-87
2021/03/04 09:15:36;;;;;;;51.40;23.80;;;7.60;99.90;;;;;;4976749;28;20186;-86
2021/03/04 09:18:07;;;;;;;47.53;23.37;;;7.70;99.90;;;;;;4994924;28;20194;-86
2021/03/04 09:20:34;;;;;;;51.60;23.83;;;7.70;99.90;;;;;;4993080;28;20228;-87
2021/03/04 09:23:00;;;;;;;46.33;23.50;;;7.80;99.90;;;;;;4995046;28;20189;-87
2021/03/04 09:25:26;;;;;;;51.87;24.83;;;7.90;99.90;;;;;;4992413;28;20182;-87
2021/03/04 09:27:52;;;;;;;52.70;24.63;;;7.90;99.90;;;;;;4993557;28;20178;-88
2021/03/04 09:30:29;;;;;;;48.97;25.37;;;7.80;99.90;;;;;;4961136;28;20217;-86
2021/03/04 09:32:58;;;;;;;58.00;27.27;;;7.80;99.90;;;;;;4994802;28;20197;-87
2021/03/04 09:35:24;;;;;;;59.43;26.53;;;7.80;99.90;;;;;;4994913;28;20204;-89
2021/03/04 09:37:51;;;;;;;57.50;28.47;;;7.70;99.90;;;;;;4994082;28;20615;-89
2021/03/04 09:40:42;;;;;;;63.80;27.93;;;7.70;99.90;;;;;;4994483;28;20174;-89
2021/03/04 09:43:19;;;;;;;61.67;22.37;;;7.60;99.90;;;;;;4992679;28;20748;-88
2021/03/04 09:45:50;;;;;;;47.40;22.20;;;7.60;99.90;;;;;;4976946;28;20643;-88
2021/03/04 09:48:17;;;;;;;54.83;25.03;;;7.40;99.90;;;;;;4977521;28;20182;-89
2021/03/04 09:50:53;;;;;;;57.97;27.20;;;7.40;99.90;;;;;;4977356;28;20213;-88
2021/03/04 09:53:19;;;;;;;61.13;32.27;;;7.30;99.90;;;;;;4985290;28;20205;-84
2021/03/04 09:55:45;;;;;;;68.00;32.10;;;7.30;99.90;;;;;;4987733;28;20209;-85
2021/03/04 09:58:17;;;;;;;63.30;30.70;;;7.40;99.90;;;;;;5009441;28;20182;-85
2021/03/04 10:00:43;;;;;;;67.83;33.80;;;7.30;99.90;;;;;;5004597;28;20208;-87
2021/03/04 10:03:15;;;;;;;54.70;21.17;;;7.40;99.90;;;;;;4977189;28;20193;-87
2021/03/04 10:05:51;;;;;;;65.40;31.13;;;7.40;99.90;;;;;;4944036;28;20216;-85
2021/03/04 10:08:18;;;;;;;66.90;29.27;;;7.30;99.90;;;;;;5001894;28;20177;-86
2021/03/04 10:10:48;;;;;;;55.17;26.57;;;7.40;99.90;;;;;;4987388;28;20201;-85
2021/03/04 10:13:14;;;;;;;66.93;29.57;;;7.40;99.90;;;;;;4986067;28;20233;-84
2021/03/04 10:15:41;;;;;;;73.30;32.57;;;7.50;99.90;;;;;;4946764;28;20237;-87
2021/03/04 10:18:08;;;;;;;67.07;25.83;;;7.40;99.90;;;;;;4977189;28;20204;-88
2021/03/04 10:20:36;;;;;;;69.37;34.13;;;7.50;99.90;;;;;;4976192;28;20236;-88
2021/03/04 10:23:03;;;;;;;67.00;30.97;;;7.40;99.90;;;;;;4994250;28;20277;-88
2021/03/04 10:25:29;;;;;;;64.03;28.40;;;7.50;99.90;;;;;;4993873;28;20638;-89
2021/03/04 10:27:57;;;;;;;67.10;30.53;;;7.50;99.90;;;;;;4993410;28;20190;-87
2021/03/04 10:30:23;;;;;;;60.40;29.10;;;7.50;99.90;;;;;;4977323;28;20577;-90
2021/03/04 10:32:49;;;;;;;67.33;30.53;;;7.70;99.90;;;;;;4976715;28;20300;-89
2021/03/04 10:35:16;;;;;;;64.73;29.43;;;7.80;99.90;;;;;;4976701;28;20537;-86
2021/03/04 10:37:43;;;;;;;60.47;29.57;;;8.00;99.90;;;;;;4976059;28;20210;-89
2021/03/04 10:40:11;;;;;;;54.37;23.83;;;8.20;99.90;;;;;;4976108;28;20627;-89
2021/03/04 10:42:38;;;;;;;65.57;29.30;;;8.30;99.90;;;;;;4987444;28;20243;-86
2021/03/04 10:45:22;;;;;;;65.87;30.53;;;8.40;99.90;;;;;;4987405;28;20197;-89
2021/03/04 10:47:47;;;;;;;69.30;33.00;;;8.40;99.90;;;;;;4992621;28;20171;-89
2021/03/04 10:50:21;;;;;;;50.07;24.27;;;8.60;99.90;;;;;;4978538;28;20186;-88
2021/03/04 10:52:47;;;;;;;66.13;31.00;;;8.70;99.90;;;;;;4997162;28;20205;-90
2021/03/04 10:55:15;;;;;;;63.70;29.70;;;8.60;99.90;;;;;;4993335;28;20187;-87
2021/03/04 10:57:40;;;;;;;66.07;33.87;;;8.60;99.90;;;;;;4993790;28;20188;-87
2021/03/04 11:00:09;;;;;;;63.70;30.27;;;8.70;99.90;;;;;;4979497;28;20182;-89
2021/03/04 11:02:34;;;;;;;66.47;32.20;;;8.80;99.90;;;;;;4980761;28;20189;-91
2021/03/04 11:05:00;;;;;;;62.33;30.77;;;8.90;99.90;;;;;;4986146;28;20174;-88
2021/03/04 11:07:26;;;;;;;62.47;29.57;;;8.90;99.90;;;;;;4969858;28;20210;-88
2021/03/04 11:09:52;;;;;;;60.83;29.33;;;9.10;99.90;;;;;;4967385;28;20658;-92
2021/03/04 11:12:19;;;;;;;63.43;29.90;;;9.10;99.90;;;;;;4984171;28;20193;-89
2021/03/04 11:14:45;;;;;;;62.17;30.23;;;9.00;99.90;;;;;;4984707;28;20188;-90
2021/03/04 11:17:11;;;;;;;68.70;31.63;;;9.10;99.90;;;;;;4987044;28;20178;-89
2021/03/04 11:19:36;;;;;;;58.13;29.90;;;9.10;99.90;;;;;;4987215;28;20761;-89
2021/03/04 11:22:02;;;;;;;63.80;31.83;;;9.20;99.90;;;;;;4991073;28;20186;-90
2021/03/04 11:24:28;;;;;;;61.70;27.37;;;9.30;99.90;;;;;;4989226;28;20622;-89
2021/03/04 11:26:54;;;;;;;51.43;27.87;;;9.20;99.90;;;;;;4984983;28;20182;-88
2021/03/04 11:29:19;;;;;;;58.70;28.57;;;9.00;99.90;;;;;;4976385;28;20178;-88
2021/03/04 11:31:45;;;;;;;62.60;29.63;;;9.00;99.90;;;;;;4976813;28;20179;-89
2021/03/04 11:34:11;;;;;;;57.70;28.83;;;9.10;99.90;;;;;;4975664;28;20676;-92
2021/03/04 11:36:36;;;;;;;53.80;26.90;;;8.80;99.90;;;;;;4960095;28;20583;-89
2021/03/04 11:39:03;;;;;;;62.90;30.97;;;9.00;99.90;;;;;;4990618;28;20178;-93
2021/03/04 11:41:29;;;;;;;43.30;21.93;;;8.80;99.90;;;;;;4995378;28;20332;-89
2021/03/04 11:43:55;;;;;;;47.03;24.97;;;8.80;99.90;;;;;;4978987;28;20265;-92
2021/03/04 11:46:20;;;;;;;58.07;25.50;;;8.80;99.90;;;;;;4993190;28;20179;-88
2021/03/04 11:48:47;;;;;;;59.17;29.23;;;8.70;99.90;;;;;;4968301;28;20596;-89
2021/03/04 11:51:13;;;;;;;51.67;22.63;;;8.60;99.90;;;;;;4984865;28;20687;-90
2021/03/04 11:53:39;;;;;;;56.37;26.30;;;8.60;99.90;;;;;;4986691;28;20203;-91
2021/03/04 11:56:05;;;;;;;50.80;25.10;;;8.60;99.90;;;;;;4968660;28;20217;-92
2021/03/04 11:58:30;;;;;;;53.17;26.37;;;8.50;99.90;;;;;;4987200;28;20174;-88
2021/03/04 12:00:56;;;;;;;52.93;24.87;;;8.40;99.90;;;;;;4984195;28;20192;-89
2021/03/04 12:03:22;;;;;;;49.20;23.60;;;8.40;99.90;;;;;;4969756;28;20190;-89
2021/03/04 12:05:49;;;;;;;53.53;26.33;;;8.40;99.90;;;;;;4986910;28;21482;-88
2021/03/04 12:08:15;;;;;;;47.90;24.30;;;8.40;99.90;;;;;;4983666;28;20212;-90
2021/03/04 12:10:41;;;;;;;53.83;26.17;;;8.40;99.90;;;;;;4984858;28;20205;-89
2021/03/04 12:13:07;;;;;;;50.20;26.10;;;8.30;99.90;;;;;;4969107;28;20248;-88
2021/03/04 12:15:33;;;;;;;49.97;25.10;;;8.40;99.90;;;;;;4967154;28;20205;-88
2021/03/04 12:17:59;;;;;;;60.30;25.63;;;8.40;99.90;;;;;;4967832;28;20512;-88
2021/03/04 12:20:25;;;;;;;51.03;27.03;;;8.50;99.90;;;;;;4988896;28;20184;-92
2021/03/04 12:22:51;;;;;;;49.93;24.63;;;8.50;99.90;;;;;;4982730;28;20178;-92
2021/03/04 12:25:17;;;;;;;51.17;25.30;;;8.60;99.90;;;;;;4983041;28;20209;-90
2021/03/04 12:27:42;;;;;;;58.63;26.80;;;8.50;99.90;;;;;;4951870;28;20185;-89
2021/03/04 12:30:09;;;;;;;53.80;25.83;;;8.40;99.90;;;;;;4987588;28;20582;-89
2021/03/04 12:32:35;;;;;;;51.80;25.53;;;8.50;99.90;;;;;;4982982;28;20184;-90
2021/03/04 12:35:02;;;;;;;50.57;26.10;;;8.50;99.90;;;;;;4983478;28;20179;-89
2021/03/04 12:37:28;;;;;;;39.43;19.87;;;8.50;99.90;;;;;;4983437;28;20182;-89
2021/03/04 12:39:54;;;;;;;60.73;27.73;;;8.50;99.90;;;;;;4985686;28;20198;-91